ADDS METAR Data INFO
IDs: Format: Raw Decoded Include TAF

Data at: 1010 UTC 22 May 2018

K0CO 220953Z AUTO 11010G17KT 10SM CLR 00/M05 A3034 RMK AO2
K0CO 220930Z AUTO 11009G17KT 10SM CLR 00/M06 A3034 RMK AO2
K0CO 220912Z AUTO 11010G17KT 10SM CLR 00/M06 A3034 RMK AO2
K0CO 220854Z AUTO 11017G22KT 10SM CLR 01/M05 A3033 RMK AO2
K0CO 220830Z AUTO 12023G26KT 10SM CLR 00/M05 A3034 RMK AO2
K0CO 220812Z AUTO 12010G15KT 10SM CLR 01/M05 A3036 RMK AO2 LTG DSNT N
K0CO 220754Z AUTO 10008KT 10SM CLR 01/M04 A3034 RMK AO2
K0CO 220730Z AUTO 11014G23KT 10SM CLR 01/M04 A3034 RMK AO2 LTG DSNT NW
K0CO 220712Z AUTO 14013G19KT 10SM CLR 02/M03 A3036 RMK AO2
K0CO 220652Z AUTO 14013G17KT 10SM CLR 02/M03 A3036 RMK AO2
K0CO 220634Z AUTO 14014G22KT 10SM CLR 02/M03 A3036 RMK AO2 LTG DSNT N
K0CO 220606Z AUTO 14014G22KT 10SM CLR 02/M03 A3036 RMK AO2
K0CO 220554Z AUTO 14013G20KT 10SM CLR 02/M03 A3037 RMK AO2
K0CO 220530Z AUTO 16012G16KT 10SM CLR 02/M03 A3038 RMK AO2
K0CO 220512Z AUTO 15016G21KT 10SM CLR 02/M03 A3038 RMK AO2 LTG DSNT N
K0CO 220454Z AUTO 16013KT 10SM CLR 02/M03 A3038 RMK AO2 LTG DSNT N
K0CO 220430Z AUTO 16014KT 10SM CLR 02/M03 A3038 RMK AO2 LTG DSNT SE AND S
K0CO 220412Z AUTO 16013G19KT 10SM CLR 01/M04 A3039 RMK AO2
K0CO 220354Z AUTO 14016G22KT 10SM CLR 01/M04 A3039 RMK AO2
K0CO 220330Z AUTO 14015G20KT 10SM SCT120 01/M04 A3040 RMK AO2 LTG DSNT N
K0CO 220312Z AUTO 15016KT 10SM CLR 02/M03 A3039 RMK AO2
K0CO 220254Z AUTO 16014KT 10SM CLR 01/M04 A3039 RMK AO2
K0CO 220230Z AUTO 16014KT 10SM CLR 01/M04 A3039 RMK AO2 LTG DSNT N
K0CO 220212Z AUTO 15015G18KT 10SM CLR 01/M04 A3039 RMK AO2
K0CO 220153Z AUTO 14011G21KT 10SM CLR 01/M04 A3039 RMK AO2 LTG DSNT NW
K0CO 220130Z AUTO 14012G20KT 10SM CLR 01/M04 A3039 RMK AO2 LTG DSNT S
K0CO 220112Z AUTO 15017G26KT 10SM SCT055 02/M03 A3038 RMK AO2
K0CO 220054Z AUTO 16016G27KT 10SM SCT050 SCT055 02/M03 A3039 RMK AO2 LTG DSNT W
K0CO 220030Z AUTO 16015G21KT 10SM SCT060 BKN070 03/M02 A3039 RMK AO2 LTG DSNT S
K0CO 220012Z AUTO 12012G19KT 10SM BKN060 OVC070 03/M02 A3038 RMK AO2 LTG DSNT NE AND S
K0CO 212353Z AUTO 12014G20KT 101V161 10SM SCT060 BKN075 OVC090 03/M02 A3039 RMK AO2 LTG DSNT N
K0CO 212330Z AUTO 11012G19KT 081V151 10SM SCT060 BKN090 03/M02 A3039 RMK AO2 LTG DSNT S
K0CO 212312Z AUTO 11009G16KT 101V161 10SM BKN065 BKN070 BKN090 03/M02 A3039 RMK AO2
K0CO 212254Z AUTO 09010G16KT 10SM BKN060 OVC070 03/M02 A3038 RMK AO2
K0CO 212230Z AUTO 10009G16KT 10SM OVC070 03/M02 A3038 RMK AO2 LTG DSNT N
K0CO 212212Z AUTO 11009G19KT 10SM BKN070 OVC085 04/M01 A3039 RMK AO2 LTG DSNT S
K0CO 212153Z AUTO 23007KT 181V261 10SM OVC075 06/00 A3039 RMK AO2 LTG DSNT N
K0CO 212135Z AUTO 26008KT 211V311 10SM VCTS SCT075 BKN085 BKN100 06/00 A3039 RMK AO2 LTG DSNT S
K0CO 212129Z AUTO 30008KT 10SM VCTS SCT075 BKN085 06/00 A3039 RMK AO2 LTG DSNT S
K0CO 212112Z AUTO 29003G16KT 10SM SCT085 06/00 A3040 RMK AO2
K0CO 212054Z AUTO 27014G22KT 10SM SCT070 BKN085 07/01 A3040 RMK AO2 LTG DSNT N
K0CO 212030Z AUTO 29010G22KT 251V311 10SM OVC070 06/00 A3041 RMK AO2 LTG DSNT N AND NW
K0CO 212012Z AUTO 25007G15KT 10SM BKN060 06/00 A3041 RMK AO2 LTG DSNT N S AND NW
K0CO 211953Z AUTO 28015G30KT 10SM SCT060 BKN070 06/00 A3041 RMK AO2
K0CO 211935Z AUTO 25015G31KT 10SM TS BKN070 06/00 A3041 RMK AO2
K0CO 211912Z AUTO 25011G24KT 10SM SCT070 SCT080 SCT090 06/00 A3041 RMK AO2 LTG DSNT S
K0CO 211853Z AUTO 31009G21KT 10SM SCT070 BKN090 05/00 A3042 RMK AO2 LTG DSNT S AND W
K0CO 211835Z AUTO 10SM OVC055 04/M01 A3043 RMK AO2
K0CO 211812Z AUTO 22010G26KT 10SM BKN070 OVC080 05/M01 A3043 RMK AO2
K0CO 211754Z AUTO 30017G20KT 10SM BKN070 OVC080 05/M01 A3042 RMK AO2
K0CO 211730Z AUTO 29014G21KT 10SM BKN060 OVC075 05/M01 A3043 RMK AO2
K0CO 211712Z AUTO 24011G24KT 191V271 10SM BKN060 OVC075 05/M01 A3042 RMK AO2
K0CO 211652Z AUTO 23008G23KT 191V291 10SM SCT060 SCT075 05/M01 A3042 RMK AO2
K0CO 211635Z AUTO 25019G24KT 10SM SCT060 SCT075 SCT110 04/M01 A3041 RMK AO2
K0CO 211612Z AUTO 26015G20KT 10SM CLR 04/M01 A3041 RMK AO2
K0CO 211554Z AUTO 26012G17KT 201V271 10SM CLR 04/M01 A3041 RMK AO2
K0CO 211530Z AUTO 22005G21KT 10SM CLR 03/M02 A3041 RMK AO2
K0CO 211512Z AUTO 28016G22KT 10SM 03/M02 A3041 RMK AO2
K0CO 211454Z AUTO 29014G18KT 10SM CLR 02/M02 A3039 RMK AO2
K0CO 211430Z AUTO 27009G21KT 10SM CLR 02/M03 A3039 RMK AO2
K0CO 211412Z AUTO 27015G21KT 261V321 10SM CLR 02/M03 A3038 RMK AO2
K0CO 211354Z AUTO 29015G18KT 10SM CLR 02/M03 A3038 RMK AO2
K0CO 211330Z AUTO 28007G19KT 10SM CLR 02/M03 A3038 RMK AO2
K0CO 211312Z AUTO 27012G17KT 10SM CLR 01/M03 A3038 RMK AO2
K0CO 211255Z AUTO 27010G18KT 10SM CLR 01/M04 A3037 RMK AO2
K0CO 211231Z AUTO 27013G20KT 10SM CLR 01/M05 A3036 RMK AO2
K0CO 211213Z AUTO 28017G21KT 10SM CLR 01/M05 A3036 RMK AO2
K0CO 211153Z AUTO 29015G21KT 10SM CLR 00/M05 A3036 RMK AO2
K0CO 211135Z AUTO 28010G19KT 10SM CLR 00/M05 A3036 RMK AO2
K0CO 211112Z AUTO 30010G19KT 10SM CLR 00/M05 A3036 RMK AO2
K0CO 211052Z AUTO 28013G17KT 10SM CLR 00/M05 A3036 RMK AO2
K0CO 211035Z AUTO 28012G19KT 10SM CLR 00/M05 A3036 RMK AO2
K0CO 211011Z AUTO 28009G18KT 10SM CLR 00/M05 A3036 RMK AO2
K0CO 210953Z AUTO 26012G15KT 10SM CLR 00/M06 A3036 RMK AO2
K0CO 210935Z AUTO 24005G15KT 191V271 10SM CLR 00/M06 A3036 RMK AO2
K0CO 210912Z AUTO 25013G19KT 10SM CLR 00/M05 A3036 RMK AO2
K0CO 210853Z AUTO 25011G18KT 10SM CLR 00/M05 A3036 RMK AO2
K0CO 210835Z AUTO 24006G21KT 10SM CLR 00/M05 A3036 RMK AO2
K0CO 210812Z AUTO 28011G20KT 10SM CLR 00/M05 A3036 RMK AO2
K0CO 210754Z AUTO 28013G19KT 10SM CLR 01/M05 A3036 RMK AO2
K0CO 210730Z AUTO 27011G18KT 10SM CLR 01/M05 A3036 RMK AO2
K0CO 210712Z AUTO 27010G18KT 10SM CLR 00/M05 A3038 RMK AO2
K0CO 210654Z AUTO 27010G16KT 10SM CLR 00/M05 A3038 RMK AO2
K0CO 210630Z AUTO 27008G16KT 10SM CLR 00/M05 A3038 RMK AO2
K0CO 210612Z AUTO 27006G16KT 10SM CLR 01/M05 A3038 RMK AO2
K0CO 210554Z AUTO 26010G16KT 10SM CLR 00/M05 A3038 RMK AO2
K0CO 210530Z AUTO 27012G16KT 10SM CLR 00/M05 A3039 RMK AO2
K0CO 210512Z AUTO 25008G15KT 211V281 10SM CLR 00/M06 A3039 RMK AO2
K0CO 210453Z AUTO 26012G16KT 10SM CLR 00/M06 A3039 RMK AO2
K0CO 210435Z AUTO 27008KT 10SM CLR 00/M06 A3039 RMK AO2
K0CO 210412Z AUTO 30014KT 10SM CLR 00/M06 A3040 RMK AO2 LTG DSNT SE
K0CO 210354Z AUTO 29016G19KT 10SM CLR 00/M06 A3040 RMK AO2 LTG DSNT SE
K0CO 210330Z AUTO 28016KT 10SM CLR M01/M07 A3041 RMK AO2
K0CO 210312Z AUTO 26012G16KT 10SM CLR M01/M07 A3041 RMK AO2
K0CO 210254Z AUTO 24007G24KT 201V271 10SM CLR M01/M07 A3041 RMK AO2 LTG DSNT SE
K0CO 210230Z AUTO 27014G19KT 10SM CLR M01/M07 A3040 RMK AO2
K0CO 210212Z AUTO 27013G16KT 10SM SCT060 SCT075 M01/M07 A3040 RMK AO2 LTG DSNT NW
K0CO 210154Z AUTO 25006G16KT 7SM BKN050 BKN075 M01/M07 A3041 RMK AO2
K0CO 210130Z AUTO 25009KT 1/4SM HZ BKN001 BKN085 OVC120 M02/M08 A3039 RMK AO2
K0CO 210112Z AUTO 19004KT 1SM HZ BKN001 BKN085 BKN110 M01/M07 A3039 RMK AO2 VIS 1/4V5
K0CO 210053Z AUTO 16006G14KT 1/4SM HZ BKN001 M02/M08 A3038 RMK AO2
K0CO 210030Z AUTO 14007KT M1/4SM HZ OVC001 M02/M08 A3038 RMK AO2
K0CO 210012Z AUTO 23008KT 10SM SCT032 SCT040 OVC046 M01/M07 A3039 RMK AO2 LTG DSNT W
K0CO 202352Z AUTO 27014G31KT 10SM SCT002 BKN033 OVC055 00/M06 A3038 RMK AO2 LTG DSNT N AND W
K0CO 202335Z AUTO 27013G25KT M1/4SM +TSSN OVC002 M02/M08 A3039 RMK AO2 LTG DSNT SE
K0CO 202311Z AUTO 28015G29KT M1/4SM TSSN OVC002 M02/M08 A3040 RMK AO2 LTG DSNT N THRU S
K0CO 202253Z AUTO 31015KT M1/4SM -VCTSSN OVC002 M01/M07 A3039 RMK AO2 VIS M1/4V4 P0001 LTG DSNT ALQS
K0CO 202230Z AUTO 29005KT 7SM -TSSN SCT002 BKN023 OVC032 00/M06 A3038 RMK AO2 LTG DSNT S AND NW
K0CO 202212Z AUTO 32009G17KT 301V101 7SM -TSSN SCT013 BKN026 OVC040 00/M06 A3038 RMK AO2 LTG DSNT ALQS